This is the latest recevied weather packets stored in our database for station/object RK6MF-10. If no packets are shown the sender has not sent any weather packets the latest 10 day(s).
| Time | Temp. | Humidity | Pressure | Rain* | Wind** | Luminosity | Snow |
|---|---|---|---|---|---|---|---|
| 1787948413 | 20.56° C | 54% | 1012.6 hPa | - | - | - | - |
| 1787947512 | 20.56° C | 54% | 1012.6 hPa | - | - | - | - |
| 1787946612 | 20.56° C | 53% | 1012.4 hPa | - | - | - | - |
| 1787944814 | 21.11° C | 51% | 1012.3 hPa | - | - | - | - |
| 1787943914 | 21.11° C | 50% | 1012.1 hPa | - | - | - | - |
| 1787943014 | 21.67° C | 49% | 1012.1 hPa | - | - | - | - |
| 1787942114 | 21.67° C | 48% | 1012.1 hPa | - | - | - | - |
| 1787941214 | 21.67° C | 48% | 1012.2 hPa | - | - | - | - |
| 1787940314 | 21.67° C | 47% | 1012.4 hPa | - | - | - | - |
| 1787939414 | 21.67° C | 46% | 1012.3 hPa | - | - | - | - |
| 1787938513 | 21.67° C | 47% | 1012.2 hPa | - | - | - | - |
| 1787937613 | 22.22° C | 48% | 1012.1 hPa | - | - | - | - |
| 1787936713 | 22.22° C | 49% | 1012 hPa | - | - | - | - |
| 1787935813 | 22.22° C | 50% | 1011.8 hPa | - | - | - | - |
| 1787934913 | 22.22° C | 52% | 1011.6 hPa | - | - | - | - |
| 1787934013 | 22.22° C | 53% | 1011.5 hPa | - | - | - | - |
| 1787933113 | 22.22° C | 54% | 1011.5 hPa | - | - | - | - |
| 1787932213 | 22.22° C | 54% | 1011.3 hPa | - | - | - | - |
| 1787931312 | 22.78° C | 51% | 1011.2 hPa | - | - | - | - |
| 1787930412 | 23.33° C | 50% | 1011 hPa | - | - | - | - |
| 1787929512 | 23.33° C | 49% | 1010.7 hPa | - | - | - | - |
| 1787928611 | 23.89° C | 47% | 1010.5 hPa | - | - | - | - |
| 1787927711 | 23.33° C | 47% | 1010.3 hPa | - | - | - | - |
| 1787926811 | 22.78° C | 49% | 1010.3 hPa | - | - | - | - |
| 1787925911 | 22.78° C | 50% | 1010.1 hPa | - | - | - | - |
* Rain since midnight (hover to see other rain measurements)
** Current wind speed in m/s (hover to see current wind gust speed)